Time;durP1;ratioP1;P1;durP2;ratioP2;P2;SDS_P1;SDS_P2;PMS_P1;PMS_P2;Temp;Humidity;BMP_temperature;BMP_pressure;BME280_temperature;BME280_humidity;BME280_pressure;Samples;Min_cycle;Max_cycle;Signal;HPM_P1;HPM_P2
2023/10/11 04:35:25;;;;;;;12.43;2.60;;;21.50;69.80;;;;;;6209145;23;20028;-78
2023/10/11 04:37:55;;;;;;;11.30;2.15;;;21.60;71.10;;;;;;6186964;23;20005;-79
2023/10/11 04:43:04;;;;;;;13.60;2.17;;;21.60;70.60;;;;;;6211463;23;19950;-83
2023/10/11 04:45:46;;;;;;;12.07;2.40;;;21.60;70.50;;;;;;6185094;23;20013;-80
2023/10/11 04:48:30;;;;;;;9.85;2.20;;;21.60;70.60;;;;;;6211341;23;20494;-80
2023/10/11 04:51:21;;;;;;;9.00;2.22;;;21.50;70.40;;;;;;6186481;23;20000;-78
2023/10/11 04:59:16;;;;;;;10.30;2.03;;;21.50;70.50;;;;;;6211601;23;20100;-78
2023/10/11 05:04:26;;;;;;;10.68;2.10;;;21.50;71.00;;;;;;6187471;23;20012;-83
2023/10/11 05:06:54;;;;;;;6.95;1.85;;;21.50;70.50;;;;;;6212751;23;20395;-81
2023/10/11 05:09:29;;;;;;;12.80;2.33;;;21.50;70.80;;;;;;6213298;23;20399;-82
2023/10/11 05:14:36;;;;;;;11.25;2.90;;;21.40;70.70;;;;;;6184676;23;20055;-78
2023/10/11 05:27:56;;;;;;;13.02;2.38;;;21.50;71.60;;;;;;6188698;23;20090;-79
2023/10/11 05:30:28;;;;;;;15.38;2.35;;;21.50;72.00;;;;;;6188925;23;20000;-78
2023/10/11 05:52:15;;;;;;;9.73;2.22;;;21.50;72.00;;;;;;6181486;23;20024;-79
2023/10/11 05:54:45;;;;;;;9.35;2.05;;;21.40;71.70;;;;;;6181658;23;19997;-80
2023/10/11 05:57:13;;;;;;;6.07;2.22;;;21.40;72.40;;;;;;6157445;23;20036;-79
2023/10/11 05:59:42;;;;;;;10.50;2.00;;;21.40;71.80;;;;;;6180701;23;20012;-82
2023/10/11 06:02:18;;;;;;;9.30;1.90;;;21.40;71.40;;;;;;6181161;23;20444;-80
2023/10/11 06:04:46;;;;;;;5.28;1.63;;;21.40;71.20;;;;;;6180861;23;20055;-80
2023/10/11 06:07:15;;;;;;;6.32;2.33;;;21.30;70.80;;;;;;6182676;23;20028;-79
2023/10/11 06:10:06;;;;;;;9.07;2.10;;;21.30;70.50;;;;;;6181152;23;20004;-79
2023/10/11 06:12:33;;;;;;;8.27;2.63;;;21.30;70.60;;;;;;6181088;23;20063;-81
2023/10/11 06:15:08;;;;;;;6.10;2.00;;;21.30;71.00;;;;;;6179767;23;20001;-80
2023/10/11 06:17:42;;;;;;;6.35;1.95;;;21.30;71.20;;;;;;6182623;23;20344;-80
2023/10/11 06:20:27;;;;;;;6.93;1.80;;;21.30;71.40;;;;;;6182736;23;20001;-80
2023/10/11 06:23:02;;;;;;;5.55;1.98;;;21.30;71.30;;;;;;6182064;23;20012;-79
2023/10/11 06:28:15;;;;;;;9.13;1.90;;;21.30;71.20;;;;;;6183004;23;20036;-78
2023/10/11 06:30:43;;;;;;;9.15;1.80;;;21.30;71.40;;;;;;6180741;23;20275;-76
2023/10/11 06:33:13;;;;;;;5.65;1.90;;;21.30;71.30;;;;;;6156510;23;20016;-76
2023/10/11 06:35:49;;;;;;;8.75;2.22;;;21.20;71.50;;;;;;6181092;23;20016;-80
2023/10/11 06:38:16;;;;;;;7.78;2.05;;;21.30;71.80;;;;;;6180912;23;20410;-81
2023/10/11 06:40:54;;;;;;;10.75;2.10;;;21.20;71.70;;;;;;6156391;23;20059;-79
2023/10/11 06:43:23;;;;;;;10.77;2.88;;;21.20;71.80;;;;;;6182515;23;20004;-79
2023/10/11 06:45:50;;;;;;;10.25;2.20;;;21.20;72.00;;;;;;6181033;23;20035;-79
2023/10/11 06:48:18;;;;;;;7.70;2.30;;;21.10;72.20;;;;;;6156322;23;20040;-78
2023/10/11 06:50:46;;;;;;;10.13;2.05;;;21.10;72.60;;;;;;6183000;23;20005;-79
2023/10/11 06:53:13;;;;;;;8.93;1.80;;;21.10;72.60;;;;;;6182358;23;20012;-79
2023/10/11 06:55:41;;;;;;;10.38;2.10;;;21.10;72.60;;;;;;6180179;23;20470;-79
2023/10/11 06:58:16;;;;;;;8.98;2.25;;;21.00;72.60;;;;;;6181465;23;20337;-77
2023/10/11 07:00:46;;;;;;;12.45;3.00;;;21.00;72.50;;;;;;6180820;23;20009;-81
2023/10/11 07:06:00;;;;;;;7.03;1.92;;;21.00;72.60;;;;;;6180890;23;20093;-80
2023/10/11 07:08:35;;;;;;;7.82;2.00;;;21.00;73.00;;;;;;6180708;23;20001;-79
2023/10/11 07:11:18;;;;;;;10.48;1.90;;;21.00;73.40;;;;;;6178130;23;20020;-75
2023/10/11 07:14:00;;;;;;;7.35;1.77;;;20.90;73.50;;;;;;6180019;23;20008;-76
2023/10/11 07:16:29;;;;;;;7.88;2.33;;;20.90;73.20;;;;;;6178575;23;20091;-75
2023/10/11 07:18:59;;;;;;;7.00;1.88;;;20.90;73.30;;;;;;6177322;23;20323;-80
2023/10/11 07:24:30;;;;;;;5.63;2.17;;;20.80;73.60;;;;;;6179354;23;20794;-79
2023/10/11 07:27:08;;;;;;;6.70;1.73;;;20.80;73.70;;;;;;6179555;23;20417;-80
2023/10/11 07:29:37;;;;;;;7.30;1.90;;;20.80;73.80;;;;;;6155958;23;20322;-80
2023/10/11 07:32:09;;;;;;;8.48;1.77;;;20.80;74.20;;;;;;6154238;23;20043;-79
2023/10/11 07:34:38;;;;;;;5.70;2.03;;;20.80;74.20;;;;;;6179202;23;20326;-81
2023/10/11 07:37:06;;;;;;;10.30;2.65;;;20.80;74.40;;;;;;6179356;23;20008;-79
2023/10/11 07:39:37;;;;;;;8.52;1.90;;;20.80;75.00;;;;;;6180625;23;20009;-79
2023/10/11 07:42:07;;;;;;;10.73;2.55;;;20.70;75.30;;;;;;6180758;23;20375;-79
2023/10/11 07:44:38;;;;;;;10.50;2.35;;;20.70;75.40;;;;;;6181021;23;20001;-81
2023/10/11 07:47:15;;;;;;;7.95;2.13;;;20.70;75.80;;;;;;6179554;23;20012;-79
2023/10/11 07:49:43;;;;;;;7.95;1.80;;;20.60;75.80;;;;;;6180636;23;20009;-80
2023/10/11 07:52:13;;;;;;;11.02;2.20;;;20.60;76.20;;;;;;6181135;23;20032;-79
2023/10/11 07:54:41;;;;;;;9.45;2.10;;;20.60;76.30;;;;;;6179970;23;20008;-79
2023/10/11 07:57:14;;;;;;;8.75;1.88;;;20.60;76.50;;;;;;6181322;23;20044;-78
2023/10/11 07:59:47;;;;;;;8.70;2.00;;;20.50;76.30;;;;;;6179073;23;20519;-79
2023/10/11 08:02:31;;;;;;;6.97;2.05;;;20.50;76.50;;;;;;6179133;23;20015;-81
2023/10/11 08:04:59;;;;;;;10.23;2.33;;;20.50;76.70;;;;;;6157380;23;20012;-77
2023/10/11 08:07:26;;;;;;;8.38;2.10;;;20.50;76.90;;;;;;6180680;23;20044;-77
2023/10/11 08:09:55;;;;;;;10.73;2.03;;;20.50;77.20;;;;;;6180471;23;20005;-76
2023/10/11 08:12:25;;;;;;;13.38;3.08;;;20.40;77.20;;;;;;6180450;23;20037;-78
2023/10/11 08:15:04;;;;;;;8.20;2.40;;;20.40;77.40;;;;;;6152751;23;20009;-79
2023/10/11 08:17:31;;;;;;;11.85;2.38;;;20.40;77.40;;;;;;6181794;23;20084;-83
2023/10/11 08:19:59;;;;;;;10.65;3.00;;;20.40;77.60;;;;;;6180780;23;20436;-84
2023/10/11 08:22:27;;;;;;;9.73;2.78;;;20.40;77.80;;;;;;6178996;23;20009;-82
2023/10/11 08:24:59;;;;;;;8.57;2.90;;;20.40;77.50;;;;;;6181926;23;20013;-83
2023/10/11 08:27:29;;;;;;;9.15;2.35;;;20.30;77.80;;;;;;6181333;23;20405;-84
2023/10/11 08:30:17;;;;;;;;;;;20.30;77.70;;;;;;6181374;23;20005;-82
2023/10/11 08:32:43;;;;;;;16.10;2.10;;;20.30;77.90;;;;;;6180610;23;20195;-80
2023/10/11 08:35:26;;;;;;;8.00;2.13;;;20.30;77.90;;;;;;6203072;23;20025;-77
2023/10/11 08:37:53;;;;;;;6.55;1.88;;;20.20;78.00;;;;;;6210252;23;19997;-76
2023/10/11 08:40:29;;;;;;;7.63;1.80;;;20.20;78.20;;;;;;6185202;23;20084;-76
2023/10/11 08:43:00;;;;;;;10.93;1.88;;;20.20;78.30;;;;;;6163403;23;20012;-76
2023/10/11 08:45:42;;;;;;;7.25;2.17;;;20.30;78.30;;;;;;6183937;23;20015;-78
2023/10/11 08:48:11;;;;;;;12.68;2.38;;;20.30;78.60;;;;;;6185819;23;20076;-78
2023/10/11 08:50:41;;;;;;;13.17;2.23;;;20.20;79.00;;;;;;6160293;23;20027;-77
2023/10/11 08:53:09;;;;;;;8.88;2.15;;;20.20;79.20;;;;;;6210269;23;20016;-79
2023/10/11 08:55:40;;;;;;;7.13;1.92;;;20.20;79.30;;;;;;6183262;23;20025;-77
2023/10/11 08:58:23;;;;;;;10.05;2.30;;;20.20;79.30;;;;;;6183530;23;20009;-80
2023/10/11 09:00:58;;;;;;;10.38;2.10;;;20.20;79.50;;;;;;6166774;23;20024;-80
2023/10/11 09:04:01;;;;;;;7.35;2.15;;;20.10;79.60;;;;;;6184962;23;20005;-81
2023/10/11 09:06:22;;;;;;;9.63;2.97;;;20.10;79.60;;;;;;6187294;23;20016;-79
2023/10/11 09:08:51;;;;;;;8.35;2.28;;;20.10;79.60;;;;;;6160246;23;20001;-79
2023/10/11 09:11:32;;;;;;;7.40;2.05;;;20.20;79.60;;;;;;6184647;23;20008;-79
2023/10/11 09:14:22;;;;;;;8.80;2.00;;;20.10;79.50;;;;;;6187342;23;20424;-81
2023/10/11 09:17:02;;;;;;;9.88;2.10;;;20.10;79.40;;;;;;6186230;23;20004;-84
2023/10/11 09:19:32;;;;;;;9.00;2.30;;;20.10;79.40;;;;;;6164363;23;20000;-80
2023/10/11 09:22:17;;;;;;;7.40;1.98;;;20.10;79.40;;;;;;6184990;23;19997;-78
2023/10/11 09:24:45;;;;;;;10.13;2.10;;;20.10;79.40;;;;;;6186723;23;20005;-77
2023/10/11 09:29:43;;;;;;;;;;;20.10;79.50;;;;;;6161885;23;20068;-77
2023/10/11 09:32:13;;;;;;;9.55;2.60;;;20.10;79.50;;;;;;6184612;23;20293;-80
2023/10/11 09:34:43;;;;;;;;;;;20.10;79.30;;;;;;6215912;23;20024;-76
2023/10/11 09:37:11;;;;;;;8.18;2.30;;;20.10;79.40;;;;;;6184536;23;19914;-79
2023/10/11 09:39:43;;;;;;;7.18;1.95;;;20.10;79.40;;;;;;6160790;23;20028;-78
2023/10/11 09:42:22;;;;;;;6.53;1.90;;;20.00;79.40;;;;;;6211033;23;20009;-77
2023/10/11 09:44:50;;;;;;;8.50;2.00;;;20.00;79.20;;;;;;6163094;23;20336;-79
2023/10/11 09:47:17;;;;;;;12.13;2.25;;;20.00;79.40;;;;;;6184353;23;20388;-76
2023/10/11 09:49:46;;;;;;;5.93;2.00;;;20.00;79.50;;;;;;6210749;23;20447;-76
2023/10/11 09:52:18;;;;;;;5.20;1.88;;;20.00;79.30;;;;;;6212567;23;20386;-83
2023/10/11 09:54:45;;;;;;;10.00;2.05;;;20.00;79.30;;;;;;6184919;23;20005;-81
2023/10/11 09:57:25;;;;;;;5.32;1.83;;;20.00;79.30;;;;;;6160238;23;20452;-82
2023/10/11 09:59:59;;;;;;;9.18;2.40;;;19.90;79.20;;;;;;6184147;23;20086;-78
2023/10/11 10:02:29;;;;;;;9.88;2.22;;;20.00;79.20;;;;;;6185784;23;20063;-81
2023/10/11 10:04:56;;;;;;;8.88;2.00;;;20.00;79.20;;;;;;6184609;23;20000;-84
2023/10/11 10:07:25;;;;;;;11.32;1.95;;;20.00;79.20;;;;;;6212045;23;20091;-81
2023/10/11 10:10:02;;;;;;;7.03;2.30;;;19.90;79.10;;;;;;6160994;23;20131;-81
2023/10/11 10:12:57;;;;;;;7.50;2.00;;;19.90;79.00;;;;;;6161968;23;20099;-79
2023/10/11 10:15:32;;;;;;;7.47;2.00;;;19.90;79.00;;;;;;6182944;23;20084;-84
2023/10/11 10:18:05;;;;;;;6.43;1.80;;;19.90;79.00;;;;;;6162924;23;20000;-82
2023/10/11 10:20:41;;;;;;;5.43;1.70;;;19.90;78.80;;;;;;6184572;23;20103;-80
2023/10/11 10:23:17;;;;;;;10.90;2.40;;;19.90;78.70;;;;;;6185069;23;20367;-79
2023/10/11 10:26:11;;;;;;;9.88;2.03;;;19.90;78.70;;;;;;6184859;23;20009;-79
2023/10/11 10:28:50;;;;;;;7.22;1.60;;;19.90;78.80;;;;;;6211052;23;20020;-84
2023/10/11 10:31:19;;;;;;;8.27;1.75;;;19.80;78.80;;;;;;6183822;23;20013;-80
2023/10/11 10:33:51;;;;;;;8.30;1.70;;;19.90;78.90;;;;;;6185576;23;20110;-79
2023/10/11 10:36:21;;;;;;;7.07;2.40;;;19.90;78.90;;;;;;6186625;23;20019;-78
2023/10/11 10:39:05;;;;;;;8.70;2.38;;;19.90;79.00;;;;;;6210058;23;20369;-76
2023/10/11 10:41:34;;;;;;;9.60;2.47;;;19.90;79.00;;;;;;6184809;23;20384;-79
2023/10/11 10:44:05;;;;;;;7.65;2.65;;;19.90;79.00;;;;;;6183241;23;20005;-78
2023/10/11 10:46:33;;;;;;;6.68;2.13;;;19.90;78.90;;;;;;6184644;23;20024;-80
2023/10/11 10:49:02;;;;;;;5.07;2.00;;;19.90;79.00;;;;;;6211896;23;20001;-77
2023/10/11 10:51:39;;;;;;;9.98;2.03;;;19.90;79.10;;;;;;6212176;23;20055;-82
2023/10/11 10:54:22;;;;;;;7.18;1.85;;;19.80;79.10;;;;;;6186781;23;20059;-81
2023/10/11 10:56:53;;;;;;;11.60;2.58;;;19.80;79.10;;;;;;6141989;23;20001;-84
2023/10/11 10:59:21;;;;;;;10.35;2.58;;;19.80;79.00;;;;;;6185270;23;20015;-82
2023/10/11 11:01:53;;;;;;;5.25;1.70;;;19.70;79.10;;;;;;6185369;23;20426;-78
2023/10/11 11:04:24;;;;;;;6.20;1.70;;;19.80;79.20;;;;;;6185576;23;20017;-79
2023/10/11 11:06:55;;;;;;;8.80;2.83;;;19.70;79.20;;;;;;6160373;23;20023;-76
2023/10/11 11:09:26;;;;;;;7.95;2.03;;;19.70;79.10;;;;;;6184625;23;20024;-76
2023/10/11 11:12:02;;;;;;;;;;;19.70;79.10;;;;;;6211522;23;20130;-77
2023/10/11 11:14:29;;;;;;;8.35;1.85;;;19.70;79.20;;;;;;6209587;23;19954;-81
2023/10/11 11:17:00;;;;;;;7.63;1.88;;;19.70;79.30;;;;;;6185131;23;20015;-79
2023/10/11 11:19:34;;;;;;;9.52;2.05;;;19.70;79.40;;;;;;6160167;23;20005;-79
2023/10/11 11:22:19;;;;;;;9.45;2.30;;;19.70;79.50;;;;;;6162943;23;20063;-80
2023/10/11 11:24:52;;;;;;;10.02;2.10;;;19.70;79.50;;;;;;6166084;23;20075;-81
2023/10/11 11:27:26;;;;;;;10.68;2.40;;;19.60;79.50;;;;;;6185995;23;20013;-82
2023/10/11 11:29:54;;;;;;;7.93;2.20;;;19.60;79.50;;;;;;6185597;23;20078;-81
2023/10/11 11:32:37;;;;;;;11.13;2.38;;;19.60;79.70;;;;;;6160276;23;20103;-82
2023/10/11 11:35:10;;;;;;;8.35;1.90;;;19.60;79.70;;;;;;6184933;23;20035;-79
2023/10/11 11:37:39;;;;;;;11.88;2.28;;;19.50;79.70;;;;;;6185790;23;20037;-79
2023/10/11 11:40:24;;;;;;;12.32;2.95;;;19.50;79.90;;;;;;6184294;23;20507;-79
2023/10/11 11:42:51;;;;;;;15.30;2.88;;;19.50;80.10;;;;;;6211424;23;19997;-84
2023/10/11 11:45:19;;;;;;;8.52;2.70;;;19.50;80.00;;;;;;6213665;23;20005;-82
2023/10/11 11:48:00;;;;;;;9.95;2.22;;;19.50;80.00;;;;;;6214424;23;20140;-79
2023/10/11 11:50:31;;;;;;;9.60;2.10;;;19.50;80.00;;;;;;6190479;23;20001;-79
2023/10/11 11:53:03;;;;;;;7.15;2.33;;;19.40;80.10;;;;;;6213646;23;20058;-79
2023/10/11 11:55:31;;;;;;;12.13;2.30;;;19.40;80.20;;;;;;6187703;23;20016;-85
2023/10/11 11:57:59;;;;;;;7.90;2.17;;;19.30;80.30;;;;;;6213157;23;20040;-81
2023/10/11 12:02:54;;;;;;;9.85;2.13;;;19.30;80.50;;;;;;6188163;23;20107;-81
2023/10/11 12:05:21;;;;;;;11.05;2.08;;;19.30;80.70;;;;;;6139307;23;20001;-81
2023/10/11 12:07:57;;;;;;;6.57;1.77;;;19.30;80.70;;;;;;6188301;23;20015;-81
2023/10/11 12:10:28;;;;;;;6.70;2.20;;;19.30;80.60;;;;;;6165903;23;19996;-81
2023/10/11 12:13:05;;;;;;;11.73;2.28;;;19.30;80.60;;;;;;6163839;23;20051;-80
2023/10/11 12:15:41;;;;;;;9.02;2.10;;;19.20;80.70;;;;;;6190410;23;19996;-80
2023/10/11 12:18:09;;;;;;;8.82;2.10;;;19.20;80.90;;;;;;6187925;23;20013;-81
2023/10/11 12:20:37;;;;;;;10.07;2.33;;;19.20;81.10;;;;;;6213569;23;20005;-81
2023/10/11 12:23:10;;;;;;;5.53;1.80;;;19.20;81.30;;;;;;6188736;23;20008;-80
2023/10/11 12:25:41;;;;;;;9.30;1.90;;;19.20;81.30;;;;;;6186464;23;20462;-81
2023/10/11 12:28:11;;;;;;;11.98;2.35;;;19.20;81.40;;;;;;6163372;23;20009;-80
2023/10/11 12:30:38;;;;;;;8.23;1.77;;;19.20;81.40;;;;;;6187981;23;20001;-81
2023/10/11 12:33:08;;;;;;;12.05;2.10;;;19.10;81.50;;;;;;6163020;23;20016;-81
2023/10/11 12:35:40;;;;;;;8.75;1.85;;;19.10;81.60;;;;;;6188779;23;20467;-81
2023/10/11 12:38:13;;;;;;;8.07;2.00;;;19.10;81.70;;;;;;6162890;23;20035;-81
2023/10/11 12:40:44;;;;;;;7.50;1.85;;;19.10;81.80;;;;;;6188166;23;20076;-80
2023/10/11 12:43:12;;;;;;;8.45;2.65;;;19.10;81.80;;;;;;6163225;23;20499;-80
2023/10/11 12:45:42;;;;;;;6.43;1.90;;;19.00;81.90;;;;;;6187482;23;20001;-80
2023/10/11 12:48:15;;;;;;;7.38;2.28;;;19.00;81.90;;;;;;6213511;23;20324;-80
2023/10/11 12:50:42;;;;;;;8.70;2.28;;;19.00;81.90;;;;;;6140733;23;20451;-81
2023/10/11 12:53:12;;;;;;;11.00;2.90;;;19.00;81.90;;;;;;6214757;23;19996;-82
2023/10/11 12:55:45;;;;;;;7.38;1.90;;;18.90;82.00;;;;;;6187864;23;20392;-81
2023/10/11 12:58:16;;;;;;;10.88;2.47;;;18.90;82.30;;;;;;6186398;23;20008;-81
2023/10/11 13:03:42;;;;;;;6.63;1.90;;;18.80;82.70;;;;;;6168628;23;20229;-81
2023/10/11 13:06:10;;;;;;;9.02;2.05;;;18.80;82.60;;;;;;6214599;23;20013;-81
2023/10/11 13:08:40;;;;;;;7.47;2.47;;;18.80;82.40;;;;;;6162464;23;20008;-81
2023/10/11 13:11:11;;;;;;;;;;;18.80;82.50;;;;;;6165166;23;20011;-81
2023/10/11 13:13:40;;;;;;;10.60;2.42;;;18.80;82.50;;;;;;6214286;23;20205;-81
2023/10/11 13:16:08;;;;;;;8.02;2.40;;;18.80;82.40;;;;;;6187908;23;20008;-82
2023/10/11 13:18:39;;;;;;;11.23;2.38;;;18.80;82.50;;;;;;6213730;23;20015;-81
2023/10/11 13:21:11;;;;;;;8.98;2.15;;;18.80;82.60;;;;;;6163076;23;20005;-81
2023/10/11 13:23:43;;;;;;;5.25;1.88;;;18.80;82.60;;;;;;6189948;23;20008;-82
2023/10/11 13:26:10;;;;;;;8.15;2.00;;;18.80;82.50;;;;;;6189377;23;20012;-81
2023/10/11 13:28:40;;;;;;;8.40;2.53;;;18.80;82.50;;;;;;6165312;23;20000;-81
2023/10/11 13:31:10;;;;;;;9.55;2.10;;;18.80;82.60;;;;;;6216348;23;20031;-81
2023/10/11 13:33:37;;;;;;;;;;;18.80;82.60;;;;;;6216484;23;20011;-81
2023/10/11 13:36:06;;;;;;;11.57;2.45;;;18.80;82.70;;;;;;6215451;23;19911;-82
2023/10/11 13:38:34;;;;;;;8.48;2.30;;;18.80;82.90;;;;;;6189916;23;20000;-81
2023/10/11 13:41:01;;;;;;;7.07;2.38;;;18.70;82.70;;;;;;6165068;23;20004;-81
2023/10/11 13:43:28;;;;;;;7.63;2.63;;;18.70;83.00;;;;;;6216083;23;20087;-81
2023/10/11 13:46:06;;;;;;;12.77;2.50;;;18.70;83.10;;;;;;6164145;23;20098;-81
2023/10/11 13:48:45;;;;;;;7.78;2.28;;;18.70;83.10;;;;;;6215373;23;20005;-80
2023/10/11 13:51:19;;;;;;;5.30;2.17;;;18.70;83.30;;;;;;6166981;23;20023;-81
2023/10/11 13:53:46;;;;;;;11.57;2.20;;;18.70;83.50;;;;;;6216013;23;20230;-81
2023/10/11 13:56:20;;;;;;;5.38;1.80;;;18.60;83.50;;;;;;6188836;23;20005;-81
2023/10/11 13:58:52;;;;;;;9.07;2.33;;;18.60;83.50;;;;;;6190737;23;20004;-81
2023/10/11 14:04:16;;;;;;;7.32;2.20;;;18.50;83.80;;;;;;6193107;23;20047;-81
2023/10/11 14:06:43;;;;;;;10.55;2.65;;;18.50;84.00;;;;;;6168997;23;20023;-81
2023/10/11 14:09:16;;;;;;;9.23;2.33;;;18.50;84.10;;;;;;6165472;23;20000;-82
2023/10/11 14:11:49;;;;;;;9.32;2.78;;;18.40;83.90;;;;;;6216127;23;20016;-81
2023/10/11 14:14:22;;;;;;;15.07;3.03;;;18.40;84.10;;;;;;6215280;23;20004;-81
2023/10/11 14:16:50;;;;;;;13.80;2.70;;;18.40;84.30;;;;;;6189996;23;20004;-81
2023/10/11 14:19:17;;;;;;;12.63;2.63;;;18.40;84.40;;;;;;6188833;23;20003;-81
2023/10/11 14:21:48;;;;;;;8.15;2.40;;;18.40;84.50;;;;;;6189059;23;20312;-81
2023/10/11 14:24:18;;;;;;;7.78;2.65;;;18.40;84.30;;;;;;6215122;23;20502;-81
2023/10/11 14:26:46;;;;;;;;;;;18.40;84.20;;;;;;6164026;23;20013;-81
2023/10/11 14:29:13;;;;;;;6.55;2.20;;;18.40;84.10;;;;;;6215728;23;20311;-81
2023/10/11 14:31:42;;;;;;;8.82;2.17;;;18.40;84.10;;;;;;6215298;23;20000;-82
2023/10/11 14:34:09;;;;;;;6.95;2.25;;;18.30;84.40;;;;;;6183629;23;20013;-82
2023/10/11 14:36:36;;;;;;;9.88;2.40;;;18.40;84.60;;;;;;6133993;23;20337;-82
2023/10/11 14:39:17;;;;;;;10.60;2.25;;;18.40;84.50;;;;;;6184164;23;20344;-82
2023/10/11 14:41:51;;;;;;;4.72;1.85;;;18.40;84.50;;;;;;6183768;23;20001;-82
2023/10/11 14:44:18;;;;;;;10.20;2.40;;;18.30;84.60;;;;;;6160396;23;20012;-82
2023/10/11 14:46:47;;;;;;;5.82;1.98;;;18.30;84.80;;;;;;6182591;23;20016;-81
2023/10/11 14:49:19;;;;;;;11.50;2.40;;;18.30;84.90;;;;;;6184985;23;19997;-82
2023/10/11 14:51:49;;;;;;;7.03;2.25;;;18.30;85.10;;;;;;6184212;23;20063;-81
2023/10/11 14:54:16;;;;;;;7.60;2.42;;;18.30;85.10;;;;;;6160328;23;20008;-82
2023/10/11 14:56:43;;;;;;;7.15;2.33;;;18.30;85.30;;;;;;6183396;23;20005;-82
2023/10/11 14:59:13;;;;;;;8.82;2.40;;;18.30;85.40;;;;;;6184374;23;20083;-81
2023/10/11 15:01:40;;;;;;;;;;;18.40;85.40;;;;;;6184117;23;20061;-81
2023/10/11 15:04:10;;;;;;;8.48;2.28;;;18.30;85.40;;;;;;6183584;23;20334;-81
2023/10/11 15:06:45;;;;;;;;;;;18.30;85.50;;;;;;6183849;23;20100;-81
2023/10/11 15:09:12;;;;;;;10.25;2.25;;;18.30;85.60;;;;;;6185201;23;19900;-82
2023/10/11 15:11:39;;;;;;;7.35;2.22;;;18.30;85.50;;;;;;6183381;23;20008;-80
2023/10/11 15:14:07;;;;;;;11.95;2.45;;;18.30;85.40;;;;;;6182142;23;20463;-79
2023/10/11 15:16:38;;;;;;;13.95;2.78;;;18.30;85.40;;;;;;6159055;23;20013;-81
2023/10/11 15:19:09;;;;;;;11.98;2.65;;;18.30;85.30;;;;;;6183823;23;20001;-81
2023/10/11 15:21:38;;;;;;;12.13;3.33;;;18.20;85.30;;;;;;6159908;23;20116;-81
2023/10/11 15:24:13;;;;;;;11.20;2.42;;;18.20;85.40;;;;;;6185179;23;20336;-81
2023/10/11 15:26:40;;;;;;;9.32;2.38;;;18.20;85.70;;;;;;6183485;23;20012;-81
2023/10/11 15:29:07;;;;;;;13.82;2.70;;;18.20;85.70;;;;;;6185038;23;20302;-81
2023/10/11 15:31:35;;;;;;;9.25;2.42;;;18.20;85.70;;;;;;6182607;23;20031;-81
2023/10/11 15:34:12;;;;;;;8.43;2.33;;;18.20;85.60;;;;;;6183425;23;20017;-81
2023/10/11 15:36:43;;;;;;;8.20;2.08;;;18.20;85.60;;;;;;6184698;23;20080;-81
2023/10/11 15:39:10;;;;;;;12.48;2.53;;;18.10;85.80;;;;;;6182225;23;20375;-81
2023/10/11 15:41:38;;;;;;;10.00;2.28;;;18.10;85.60;;;;;;6158726;23;20028;-81
2023/10/11 15:44:05;;;;;;;11.32;2.53;;;18.10;85.50;;;;;;6184795;23;20008;-81
2023/10/11 15:46:33;;;;;;;9.40;2.53;;;18.00;85.50;;;;;;6157831;23;20009;-81
2023/10/11 15:49:00;;;;;;;6.43;2.40;;;18.00;85.60;;;;;;6183048;23;20021;-82
2023/10/11 15:51:31;;;;;;;5.05;2.35;;;18.00;85.80;;;;;;6184662;23;20005;-81
2023/10/11 15:53:58;;;;;;;9.30;2.10;;;18.00;86.00;;;;;;6184925;23;20047;-82
2023/10/11 15:56:25;;;;;;;7.85;2.15;;;17.90;86.20;;;;;;6158464;23;20451;-80
2023/10/11 15:58:52;;;;;;;6.00;2.17;;;17.90;86.30;;;;;;6184424;23;20024;-83
2023/10/11 16:01:20;;;;;;;6.72;1.90;;;17.70;86.30;;;;;;6184465;23;20006;-82
2023/10/11 16:03:54;;;;;;;10.60;2.15;;;17.70;86.40;;;;;;6182680;23;20001;-82
2023/10/11 16:06:24;;;;;;;7.32;2.20;;;17.70;86.50;;;;;;6182504;23;20001;-82
2023/10/11 16:08:51;;;;;;;8.73;2.40;;;17.70;86.70;;;;;;6182596;23;20024;-82
2023/10/11 16:11:21;;;;;;;8.13;2.20;;;17.60;86.80;;;;;;6184845;23;20496;-82
2023/10/11 16:13:48;;;;;;;5.55;2.33;;;17.60;87.00;;;;;;6159256;23;20088;-82
2023/10/11 16:16:19;;;;;;;10.70;2.70;;;17.50;87.10;;;;;;6158027;23;20456;-82
2023/10/11 16:18:46;;;;;;;8.93;2.70;;;17.50;87.30;;;;;;6159382;23;20055;-82
2023/10/11 16:21:17;;;;;;;8.30;2.38;;;17.50;87.30;;;;;;6158331;23;20009;-82
2023/10/11 16:23:45;;;;;;;9.30;2.40;;;17.50;87.30;;;;;;6159418;23;20083;-82
2023/10/11 16:26:14;;;;;;;8.20;2.33;;;17.50;87.30;;;;;;6183006;23;20076;-82
2023/10/11 16:28:42;;;;;;;6.65;2.22;;;17.50;87.30;;;;;;6182596;23;20021;-82
2023/10/11 16:31:12;;;;;;;9.35;2.42;;;17.50;87.20;;;;;;6182557;23;20475;-83
2023/10/11 16:33:41;;;;;;;5.25;2.28;;;17.50;87.20;;;;;;6162960;23;20025;-83
2023/10/11 16:36:09;;;;;;;5.93;2.30;;;17.50;87.10;;;;;;6188091;23;20072;-83
2023/10/11 16:38:37;;;;;;;9.20;2.75;;;17.50;87.20;;;;;;6163274;23;20015;-83
2023/10/11 16:41:06;;;;;;;7.50;2.53;;;17.50;87.00;;;;;;6187789;23;20007;-83
2023/10/11 16:43:34;;;;;;;8.77;2.40;;;17.50;87.20;;;;;;6164144;23;20028;-83
2023/10/11 16:46:01;;;;;;;8.32;2.55;;;17.40;87.20;;;;;;6162784;23;20004;-82
2023/10/11 16:48:28;;;;;;;6.32;2.75;;;17.40;87.40;;;;;;6213687;23;20008;-82
2023/10/11 16:50:58;;;;;;;12.30;2.50;;;17.40;87.50;;;;;;6188189;23;19996;-82
2023/10/11 16:53:25;;;;;;;19.55;3.05;;;17.40;87.30;;;;;;6214156;23;20028;-82
2023/10/11 16:55:53;;;;;;;9.32;2.42;;;17.40;87.50;;;;;;6162105;23;20013;-83
2023/10/11 16:58:22;;;;;;;8.20;2.33;;;17.40;87.40;;;;;;6187502;23;19996;-83
2023/10/11 17:00:49;;;;;;;8.02;2.78;;;17.40;87.30;;;;;;6163353;23;20055;-82
2023/10/11 17:03:20;;;;;;;10.65;3.15;;;17.40;87.10;;;;;;6187967;23;20001;-84
2023/10/11 17:05:47;;;;;;;5.00;2.33;;;17.40;87.10;;;;;;6213075;23;20301;-85
2023/10/11 17:08:15;;;;;;;9.55;2.50;;;17.40;87.10;;;;;;6188185;23;20031;-85
2023/10/11 17:10:42;;;;;;;6.55;2.50;;;17.30;86.80;;;;;;6163319;23;20007;-84
2023/10/11 17:13:09;;;;;;;9.30;2.58;;;17.30;86.90;;;;;;6187962;23;20000;-85
2023/10/11 17:15:37;;;;;;;8.10;2.25;;;17.30;87.00;;;;;;6162306;23;20000;-85
2023/10/11 17:18:08;;;;;;;13.77;2.38;;;17.30;87.20;;;;;;6214664;23;20328;-85
2023/10/11 17:20:41;;;;;;;7.93;2.30;;;17.30;87.30;;;;;;6188983;23;20026;-84
2023/10/11 17:23:09;;;;;;;7.85;2.38;;;17.30;87.20;;;;;;6165709;23;20008;-86
2023/10/11 17:25:37;;;;;;;6.68;2.53;;;17.30;87.50;;;;;;6213959;23;19997;-86
2023/10/11 17:28:05;;;;;;;8.88;2.50;;;17.20;87.40;;;;;;6214612;23;20072;-86
2023/10/11 17:30:33;;;;;;;8.65;2.47;;;17.20;87.50;;;;;;6214003;23;20032;-85
2023/10/11 17:33:01;;;;;;;7.30;2.50;;;17.20;87.40;;;;;;6187666;23;20005;-83
2023/10/11 17:35:28;;;;;;;6.80;2.53;;;17.10;87.40;;;;;;6163173;23;20091;-83
2023/10/11 17:37:56;;;;;;;7.97;2.25;;;17.10;87.50;;;;;;6188096;23;20000;-84
2023/10/11 17:40:27;;;;;;;6.93;2.58;;;17.10;87.60;;;;;;6188530;23;20012;-82
2023/10/11 17:43:00;;;;;;;10.13;3.15;;;17.10;87.60;;;;;;6163396;23;20009;-84
2023/10/11 17:45:33;;;;;;;8.60;2.58;;;17.20;87.80;;;;;;6187811;23;20000;-83
2023/10/11 17:48:02;;;;;;;8.50;2.42;;;17.10;87.70;;;;;;6185334;23;20017;-84
2023/10/11 17:50:30;;;;;;;15.20;3.00;;;17.10;87.50;;;;;;6211997;23;20009;-79
2023/10/11 17:52:57;;;;;;;7.53;2.30;;;17.10;87.40;;;;;;6187243;23;20012;-84
2023/10/11 17:55:27;;;;;;;9.38;2.53;;;17.10;87.30;;;;;;6161368;23;20005;-84
2023/10/11 17:57:57;;;;;;;10.52;2.75;;;17.10;87.40;;;;;;6188415;23;20005;-84
2023/10/11 18:00:27;;;;;;;6.70;2.47;;;17.10;87.20;;;;;;6163050;23;20005;-84
2023/10/11 18:02:55;;;;;;;6.90;2.40;;;17.00;87.20;;;;;;6163444;23;20327;-82
2023/10/11 18:05:22;;;;;;;11.82;2.63;;;17.00;87.30;;;;;;6137877;23;20047;-83
2023/10/11 18:07:50;;;;;;;7.03;2.33;;;17.00;87.10;;;;;;6162901;23;20020;-84
2023/10/11 18:10:18;;;;;;;6.88;2.38;;;17.00;87.20;;;;;;6163311;23;20030;-83
2023/10/11 18:12:49;;;;;;;4.72;2.05;;;17.00;87.30;;;;;;6189353;23;20711;-85
2023/10/11 18:15:24;;;;;;;10.13;2.45;;;17.00;87.40;;;;;;6215573;23;20343;-81
2023/10/11 18:17:54;;;;;;;5.25;2.65;;;16.90;87.20;;;;;;6191042;23;20001;-80
2023/10/11 18:20:21;;;;;;;4.73;2.40;;;16.90;87.30;;;;;;6215245;23;20005;-80
2023/10/11 18:22:50;;;;;;;7.53;2.58;;;16.90;87.40;;;;;;6164744;23;20285;-83
2023/10/11 18:25:17;;;;;;;11.00;2.40;;;16.90;87.50;;;;;;6215421;23;20005;-84
2023/10/11 18:27:51;;;;;;;7.95;2.38;;;16.90;87.50;;;;;;6215020;23;20443;-85
2023/10/11 18:30:23;;;;;;;7.60;2.80;;;16.90;87.40;;;;;;6215724;23;20088;-85
2023/10/11 18:32:50;;;;;;;10.73;2.85;;;16.80;87.60;;;;;;6190624;23;20416;-86
2023/10/11 18:35:18;;;;;;;6.65;2.45;;;16.80;87.40;;;;;;6164353;23;20143;-85
2023/10/11 18:37:45;;;;;;;7.13;2.67;;;16.80;87.00;;;;;;6189395;23;20005;-84
2023/10/11 18:40:30;;;;;;;8.50;2.53;;;16.80;87.20;;;;;;6189523;23;20008;-84
2023/10/11 18:43:00;;;;;;;9.52;2.40;;;16.80;87.40;;;;;;6192859;23;19997;-83